Relevés horaires Chievres (Belgique)


Relevés horaires à Chievres - Samedi 14 Mai 2016
Heure UTC1 Température [°C] Vent [km/h] Hum. [%] Pres.4 [hPa] Visi. [Km] Nébu. [octa] Préc.5 [mm] Cond.
2m. Res. Ros. Dir.2 Vit. Moy. Raf.3
23:00 5.0 5.0 2.1 O 3.7 5.6 7.4 81 1021.5(0.9/3h) 20 -- -- --
22:00 6.2 6.2 1.8 NO 3.7 5.6 7.4 73 1021.2(1.2/3h) 20 -- -- --
21:00 6.9 6 2.3 NNO 5.6 0.0 0.0 72 1021(1.5/3h) 20 -- -- Ciel clair
20:00 7.3 6 2.2 N 7.4 11.1 16.7 70 1020.5(1.4/3h) 20 -- -- --
19:00 8.6 6.8 0.1 NNO 11.1 14.8 20.4 55 1019.8(1.3/3h) 20 -- -- --
18:00 9.6 8 0.4 NNO 11.1 0.0 0.0 53 1019.2(1.3/3h) 20 -- 0/0h
--
17:00 10.3 8.5 1.6 NNO 13.0 18.5 24.1 55 1019(1.2/3h) 20 -- -- --
16:00 11.6 9.9 1.4 NNO 14.8 16.7 22.2 49 1018.2(0.9/3h) 19 -- -- --
15:00 11.9 10.5 1.9 N 13.0 0.0 0.0 50 1017.7(0.8/3h) 20 -- -- --
14:00 12.1 10.7 1.4 NNO 13.0 14.8 20.4 48 1017.6(0.5/3h) 20 -- -- --
13:00 12.1 10.5 1.0 NNO 14.8 14.8 22.2 47 1017.2(0.8/3h) 20 -- -- --
12:00 12.1 10.7 1.5 NNO 13.0 0.0 0.0 48 1017(1.2/3h) 18 -- 0/0h
--
11:00 10.2 8.7 2.1 N 11.1 14.8 20.4 57 1017.1(1.6/3h) 19 -- -- --
10:00 10.8 9.4 2.0 N 11.1 11.1 16.7 54 1016.3(1.5/3h) 20 -- -- --
09:00 10.1 8.9 1.4 N 9.3 0.0 0.0 55 1015.7(1.2/3h) 20 -- -- --
08:00 9.1 7.7 2.9 N 9.3 11.1 16.7 65 1015.5(1.4/3h) 20 -- -- --
07:00 9.0 7.6 1.6 N 9.3 11.1 14.8 60 1015(1.5/3h) 20 -- -- --
06:00 8.6 6.8 2.1 N 11.1 0.0 0.0 64 1014.6(1.5/3h) 20 -- 0/0h
--
05:00 8.6 7.1 2.7 N 9.3 11.1 14.8 66 1014(1.1/3h) 19 -- -- --
04:00 8.8 7.3 3.9 N 9.3 11.1 14.8 71 1013.3(0.8/3h) 17 -- -- --
03:00 8.6 7.1 3.9 N 9.3 0.0 0.0 72 1013.1(0.8/3h) 17 -- -- --
02:00 8.9 7.9 5.0 N 7.4 11.1 14.8 76 1012.7(1.2/3h) 15 -- -- --
01:00 8.6 8.6 6.0 N 3.7 7.4 9.3 84 1012.5(1.5/3h) 13 -- -- --
00:00 9.1 8.1 6.6 N 7.4 0.0 0.0 84 1012.1(1.9/3h) 12 -- 0/0h
--

1 Coordinated Universal Time. Actuellement il est 16:00 locale et 14:00 UTC.

2 Le vent souffle depuis la direction indiquée vers la direction oposée.

3 Les rafales max. sont disponible 40 min après l'heure du relevé.

4 Pour les stations d'altitude (plus de 600m) le géopotentiel du niveau le plus proche de la pression obligatoire est indiqué.

5 Les stations disposant d'un diffuseur peuvent indiquer "trace". Cela signifie que des précipitations ont touchés le sol mais que la quantité est inférieure à 0.1 mm.

Récapitulatif de la journée
Température [°C] Vent [km/h] Ensoleillement4 [h] Precipitations totale5 [mm] Pression [Hpa]
Min1 Max.2 Moy.3 Max. Min Max.
8.3 13.5 7.9 24.1 0 h 0 min 0 1012.1 1021.5

1 Température minimale relevée entre 18:00 UTC la veille et 18:00 UTC le jour donné.

2 Température maximale relevée entre 06:00 UTC le jour donné et 06:00 UTC le lendemain.

3 Vent moyen de la journée basé sur les relevés horaires.

4 Ensoleillement en heures relevé entre 06:00 UTC la veille et 06:00 UTC le jour donné.

5 Précipitations totales tombées entre 06:00 UTC la jour donné et 06:00 UTC le lendemain.

Graphiques horaires